Time;durP1;ratioP1;P1;durP2;ratioP2;P2;SDS_P1;SDS_P2;PMS_P1;PMS_P2;Temp;Humidity;BMP_temperature;BMP_pressure;BME280_temperature;BME280_humidity;BME280_pressure;Samples;Min_cycle;Max_cycle;Signal;HPM_P1;HPM_P2
2021/03/29 00:03:22;;;;;;;4.30;2.75;;;;;;;-140.79;100.00;63287.88;4984921;23;20095;-86
2021/03/29 00:05:47;;;;;;;3.45;2.50;;;;;;;-140.79;100.00;63287.88;4954241;29;20055;-85
2021/03/29 00:08:24;;;;;;;4.00;2.75;;;;;;;-140.79;100.00;63287.88;4952792;29;20037;-85
2021/03/29 00:10:52;;;;;;;3.95;2.78;;;;;;;-140.79;100.00;63287.88;4951872;28;20050;-85
2021/03/29 00:13:18;;;;;;;4.40;2.80;;;;;;;-140.79;100.00;63287.88;4952391;29;20043;-85
2021/03/29 00:15:45;;;;;;;4.32;3.00;;;;;;;-140.79;100.00;63287.88;4952748;29;20023;-85
2021/03/29 00:18:11;;;;;;;4.25;3.08;;;;;;;-140.79;100.00;63287.88;4968496;28;20035;-86
2021/03/29 00:20:39;;;;;;;5.18;3.05;;;;;;;-140.79;100.00;63287.88;4953852;28;20136;-85
2021/03/29 00:23:04;;;;;;;4.15;2.97;;;;;;;-140.79;100.00;63287.88;4953634;28;20401;-85
2021/03/29 00:25:31;;;;;;;4.38;2.90;;;;;;;-140.79;100.00;63287.88;4952282;29;20058;-85
2021/03/29 00:27:56;;;;;;;3.60;2.53;;;;;;;-140.79;100.00;63287.88;4952580;29;20035;-85
2021/03/29 00:30:24;;;;;;;4.53;2.92;;;;;;;-140.79;100.00;63287.88;4952042;29;20086;-86
2021/03/29 00:32:50;;;;;;;3.67;2.70;;;;;;;-140.79;100.00;63287.88;4952358;29;20059;-85
2021/03/29 00:35:16;;;;;;;4.38;2.80;;;;;;;-140.79;100.00;63287.88;4968217;28;20085;-84
2021/03/29 00:37:47;;;;;;;5.47;3.00;;;;;;;-140.79;100.00;63287.88;4951991;29;20027;-86
2021/03/29 00:40:13;;;;;;;4.78;3.10;;;;;;;-140.79;100.00;63287.88;4952246;29;20043;-84
2021/03/29 00:42:38;;;;;;;4.05;2.42;;;;;;;-140.79;100.00;63287.88;4953302;28;20460;-85
2021/03/29 00:45:06;;;;;;;5.03;2.67;;;;;;;-140.79;100.00;63287.88;4951947;29;20019;-85
2021/03/29 00:47:32;;;;;;;4.47;2.65;;;;;;;-140.79;100.00;63287.88;4954013;28;20027;-85
2021/03/29 00:49:57;;;;;;;4.18;2.30;;;;;;;-140.79;100.00;63287.88;4953183;29;20038;-85
2021/03/29 00:52:23;;;;;;;5.07;2.85;;;;;;;-140.79;100.00;63287.88;4969075;28;20027;-85
2021/03/29 00:54:48;;;;;;;3.97;2.70;;;;;;;-140.79;100.00;63287.88;4952078;29;20019;-85
2021/03/29 00:57:14;;;;;;;4.18;2.45;;;;;;;-140.79;100.00;63287.88;4952169;29;20078;-85
2021/03/29 00:59:39;;;;;;;3.53;2.42;;;;;;;-140.79;100.00;63287.88;4952496;29;20027;-85
2021/03/29 01:02:05;;;;;;;3.40;2.45;;;;;;;-140.79;100.00;63287.88;4967659;28;20423;-86
2021/03/29 01:04:31;;;;;;;4.57;2.83;;;;;;;-140.79;100.00;63287.88;4952135;29;20487;-85
2021/03/29 01:06:56;;;;;;;3.78;2.60;;;;;;;-140.79;100.00;63287.88;4951535;29;20085;-85
2021/03/29 01:09:23;;;;;;;4.80;2.80;;;;;;;-140.79;100.00;63287.88;4952319;29;20027;-84
2021/03/29 01:11:59;;;;;;;4.60;2.80;;;;;;;-140.79;100.00;63287.88;4952127;29;20030;-85
2021/03/29 01:14:35;;;;;;;4.43;2.50;;;;;;;-140.79;100.00;63287.88;4952127;29;20046;-85
2021/03/29 01:17:21;;;;;;;3.75;2.20;;;;;;;-140.79;100.00;63287.88;4953073;28;20134;-85
2021/03/29 01:20:02;;;;;;;3.30;2.05;;;;;;;-140.79;100.00;63287.88;4952147;29;20050;-85
2021/03/29 01:22:36;;;;;;;4.22;2.53;;;;;;;-140.79;100.00;63287.88;4953614;28;20114;-84
2021/03/29 01:25:04;;;;;;;4.32;2.72;;;;;;;-140.79;100.00;63287.88;4952215;29;20039;-85
2021/03/29 01:27:36;;;;;;;4.05;2.70;;;;;;;-140.79;100.00;63287.88;4953020;28;20125;-85
2021/03/29 01:30:03;;;;;;;4.28;2.53;;;;;;;-140.79;100.00;63287.88;4951663;29;20034;-85
2021/03/29 01:32:29;;;;;;;3.22;2.25;;;;;;;-140.79;100.00;63287.88;4953007;28;20043;-85
2021/03/29 01:34:54;;;;;;;3.63;2.58;;;;;;;-140.79;100.00;63287.88;4951709;29;20046;-85
2021/03/29 01:37:20;;;;;;;3.58;2.60;;;;;;;-140.79;100.00;63287.88;4951783;29;20082;-84
2021/03/29 01:39:45;;;;;;;3.75;2.47;;;;;;;-140.79;100.00;63287.88;4967687;28;20481;-84
2021/03/29 01:42:11;;;;;;;4.03;2.30;;;;;;;-140.79;100.00;63287.88;4951431;29;20023;-85
2021/03/29 01:44:37;;;;;;;2.97;2.20;;;;;;;-140.79;100.00;63287.88;4951780;29;20472;-85
2021/03/29 01:47:04;;;;;;;4.13;2.17;;;;;;;-140.79;100.00;63287.88;4951632;29;20066;-85
2021/03/29 01:49:30;;;;;;;4.38;2.42;;;;;;;-140.79;100.00;63287.88;4951547;29;20035;-85
2021/03/29 01:51:55;;;;;;;3.63;2.42;;;;;;;-140.79;100.00;63287.88;4953294;28;20576;-85
2021/03/29 01:54:20;;;;;;;3.85;2.50;;;;;;;-140.79;100.00;63287.88;4951727;29;20023;-85
2021/03/29 01:56:46;;;;;;;3.75;2.40;;;;;;;-140.79;100.00;63287.88;4951440;29;20042;-84
2021/03/29 01:59:11;;;;;;;2.80;2.00;;;;;;;-140.79;100.00;63287.88;4952968;28;20078;-85
2021/03/29 02:01:37;;;;;;;3.20;2.20;;;;;;;-140.79;100.00;63287.88;4951485;29;20035;-85
2021/03/29 02:04:04;;;;;;;3.03;1.90;;;;;;;-140.79;100.00;63287.88;4952643;28;20051;-84
2021/03/29 02:06:29;;;;;;;3.65;2.20;;;;;;;-140.79;100.00;63287.88;4952874;28;20420;-85
2021/03/29 02:08:55;;;;;;;3.35;2.20;;;;;;;-140.79;100.00;63287.88;4951871;29;20034;-84
2021/03/29 02:11:21;;;;;;;4.13;2.17;;;;;;;-140.79;100.00;63287.88;4951100;29;20415;-84
2021/03/29 02:13:48;;;;;;;3.72;2.15;;;;;;;-140.79;100.00;63287.88;4952024;29;20027;-84
2021/03/29 02:16:14;;;;;;;4.07;2.40;;;;;;;-140.79;100.00;63287.88;4952573;28;20023;-85
2021/03/29 02:18:45;;;;;;;3.45;2.13;;;;;;;-140.79;100.00;63287.88;4955266;29;20034;-85
2021/03/29 02:21:35;;;;;;;3.22;2.33;;;;;;;-140.79;100.00;63287.88;4970915;28;20067;-85
2021/03/29 02:24:00;;;;;;;4.47;2.30;;;;;;;-140.79;100.00;63287.88;4956123;28;20051;-86
2021/03/29 02:26:28;;;;;;;3.10;2.10;;;;;;;-140.79;100.00;63287.88;4955004;29;20034;-86
2021/03/29 02:28:53;;;;;;;3.83;2.15;;;;;;;-140.79;100.00;63287.88;4954970;29;20027;-85
2021/03/29 02:31:19;;;;;;;3.45;2.15;;;;;;;-140.79;100.00;63287.88;4971161;28;20114;-85
2021/03/29 02:33:48;;;;;;;2.65;1.85;;;;;;;-140.79;100.00;63287.88;4955231;29;20027;-86
2021/03/29 02:36:13;;;;;;;5.40;2.63;;;;;;;-140.79;100.00;63287.88;4955892;28;20110;-84
2021/03/29 02:38:39;;;;;;;4.25;2.65;;;;;;;-140.79;100.00;63287.88;4954691;29;20038;-85
2021/03/29 02:41:04;;;;;;;3.00;1.90;;;;;;;-140.79;100.00;63287.88;4970397;28;20015;-85
2021/03/29 02:43:30;;;;;;;2.70;1.85;;;;;;;-140.79;100.00;63287.88;4970235;28;20149;-85
2021/03/29 02:45:59;;;;;;;3.53;2.35;;;;;;;-140.79;100.00;63287.88;4954552;29;20505;-84
2021/03/29 02:48:26;;;;;;;3.63;2.10;;;;;;;-140.79;100.00;63287.88;4954445;29;20496;-85
2021/03/29 02:50:53;;;;;;;3.25;2.00;;;;;;;-140.79;100.00;63287.88;4954487;28;20035;-80
2021/03/29 02:53:20;;;;;;;3.35;2.20;;;;;;;-140.79;100.00;63287.88;4954169;29;20027;-85
2021/03/29 02:55:46;;;;;;;3.00;1.90;;;;;;;-140.79;100.00;63287.88;4954522;29;20034;-85
2021/03/29 02:58:13;;;;;;;3.33;1.90;;;;;;;-140.79;100.00;63287.88;4955396;29;20023;-85
2021/03/29 03:00:39;;;;;;;2.90;1.95;;;;;;;-140.79;100.00;63287.88;4954554;29;20083;-86
2021/03/29 03:03:04;;;;;;;3.05;1.95;;;;;;;-140.79;100.00;63287.88;4954304;29;20115;-84
2021/03/29 03:05:32;;;;;;;2.67;1.70;;;;;;;-140.79;100.00;63287.88;4970647;28;20060;-85
2021/03/29 03:07:58;;;;;;;2.60;2.00;;;;;;;-140.79;100.00;63287.88;4955410;28;20027;-85
2021/03/29 03:10:24;;;;;;;4.03;2.13;;;;;;;-140.79;100.00;63287.88;4954095;29;20053;-85
2021/03/29 03:12:49;;;;;;;2.90;1.98;;;;;;;-140.79;100.00;63287.88;4955327;29;20405;-85
2021/03/29 03:15:20;;;;;;;2.50;1.67;;;;;;;-140.79;100.00;63287.88;4954917;28;20031;-84
2021/03/29 03:17:46;;;;;;;3.13;2.10;;;;;;;-140.79;100.00;63287.88;4955803;28;20474;-85
2021/03/29 03:20:12;;;;;;;2.75;1.80;;;;;;;-140.79;100.00;63287.88;4953550;29;20063;-85
2021/03/29 03:22:50;;;;;;;2.33;1.70;;;;;;;-140.79;100.00;63287.88;4953692;29;20508;-85
2021/03/29 03:25:21;;;;;;;3.55;2.05;;;;;;;-140.79;100.00;63287.88;4954220;28;20027;-85
2021/03/29 03:27:46;;;;;;;2.78;1.65;;;;;;;-140.79;100.00;63287.88;4954498;28;20158;-85
2021/03/29 03:30:31;;;;;;;2.78;1.67;;;;;;;-140.79;100.00;63287.88;4953304;29;20031;-85
2021/03/29 03:32:57;;;;;;;3.60;1.90;;;;;;;-140.79;100.00;63287.88;4969669;28;20038;-84
2021/03/29 03:35:23;;;;;;;3.13;1.80;;;;;;;-140.79;100.00;63287.88;4954894;29;20507;-85
2021/03/29 03:37:54;;;;;;;2.90;1.80;;;;;;;-140.79;100.00;63287.88;4954912;28;20027;-84
2021/03/29 03:40:20;;;;;;;2.55;1.60;;;;;;;-140.79;100.00;63287.88;4953174;29;20027;-84
2021/03/29 03:42:46;;;;;;;2.75;1.80;;;;;;;-140.79;100.00;63287.88;4953267;29;20497;-84
2021/03/29 03:45:12;;;;;;;2.13;1.63;;;;;;;-140.79;100.00;63287.88;4954303;28;20031;-84
2021/03/29 03:47:37;;;;;;;3.67;2.00;;;;;;;-140.79;100.00;63287.88;4953826;29;20031;-85
2021/03/29 03:50:05;;;;;;;2.70;1.60;;;;;;;-140.79;100.00;63287.88;4953092;29;20030;-84
2021/03/29 03:52:30;;;;;;;2.65;1.80;;;;;;;-140.79;100.00;63287.88;4954594;28;20730;-84
2021/03/29 03:54:56;;;;;;;3.25;2.00;;;;;;;-140.79;100.00;63287.88;4968800;28;20101;-84
2021/03/29 03:57:22;;;;;;;4.05;1.98;;;;;;;-140.79;100.00;63287.88;4952971;29;20054;-85
2021/03/29 03:59:47;;;;;;;3.58;1.90;;;;;;;-140.79;100.00;63287.88;4952779;29;20114;-85
2021/03/29 04:02:13;;;;;;;2.55;1.70;;;;;;;-140.79;100.00;63287.88;4948874;29;20038;-85
2021/03/29 04:04:38;;;;;;;2.85;1.52;;;;;;;-140.79;100.00;63287.88;4949469;29;20048;-85
2021/03/29 04:07:04;;;;;;;2.53;1.70;;;;;;;-140.79;100.00;63287.88;4949950;29;20036;-86
2021/03/29 04:09:46;;;;;;;2.78;1.67;;;;;;;-140.79;100.00;63287.88;4935181;29;20034;-85
2021/03/29 04:12:13;;;;;;;3.50;1.90;;;;;;;-140.79;100.00;63287.88;4947743;29;20091;-85
2021/03/29 04:14:38;;;;;;;3.08;1.70;;;;;;;-140.79;100.00;63287.88;4934854;29;20468;-85
2021/03/29 04:17:05;;;;;;;2.72;1.83;;;;;;;-140.79;100.00;63287.88;4949602;29;20043;-85
2021/03/29 04:19:31;;;;;;;2.70;1.65;;;;;;;-140.79;100.00;63287.88;4934705;29;20031;-85
2021/03/29 04:21:56;;;;;;;1.88;1.42;;;;;;;-140.79;100.00;63287.88;4949931;29;20035;-84
2021/03/29 04:24:22;;;;;;;3.17;1.50;;;;;;;-140.79;100.00;63287.88;4949730;29;20032;-85
2021/03/29 04:26:47;;;;;;;2.70;1.63;;;;;;;-140.79;100.00;63287.88;4933739;29;20020;-85
2021/03/29 04:29:13;;;;;;;2.70;1.70;;;;;;;-140.79;100.00;63287.88;4949281;29;20027;-84
2021/03/29 04:31:38;;;;;;;2.92;1.92;;;;;;;-140.79;100.00;63287.88;4934659;29;20075;-85
2021/03/29 04:34:04;;;;;;;2.53;1.75;;;;;;;-140.79;100.00;63287.88;4933445;29;20049;-85
2021/03/29 04:36:29;;;;;;;2.92;1.58;;;;;;;-140.79;100.00;63287.88;4934621;29;20024;-84
2021/03/29 04:38:55;;;;;;;2.33;1.40;;;;;;;-140.79;100.00;63287.88;4935075;29;20035;-85
2021/03/29 04:41:20;;;;;;;3.58;1.90;;;;;;;-140.79;100.00;63287.88;4934578;29;20036;-85
2021/03/29 04:43:45;;;;;;;2.60;1.60;;;;;;;-140.79;100.00;63287.88;4934586;29;20036;-84
2021/03/29 04:46:11;;;;;;;2.90;1.77;;;;;;;-140.79;100.00;63287.88;4949492;29;20039;-85
2021/03/29 04:48:36;;;;;;;2.47;1.60;;;;;;;-140.79;100.00;63287.88;4949363;29;20032;-85
2021/03/29 04:51:02;;;;;;;2.70;1.27;;;;;;;-140.79;100.00;63287.88;4934157;29;20132;-84
2021/03/29 04:53:27;;;;;;;2.83;1.63;;;;;;;-140.79;100.00;63287.88;4949307;29;20035;-86
2021/03/29 04:55:53;;;;;;;2.90;1.70;;;;;;;-140.79;100.00;63287.88;4953746;29;20031;-78
2021/03/29 04:58:18;;;;;;;2.88;1.60;;;;;;;-140.79;100.00;63287.88;4966667;28;20496;-85
2021/03/29 05:00:44;;;;;;;2.45;1.40;;;;;;;-140.79;100.00;63287.88;4973587;28;20421;-82
2021/03/29 05:03:09;;;;;;;2.72;1.50;;;;;;;-140.79;100.00;63287.88;4955179;28;20455;-78
2021/03/29 05:05:35;;;;;;;3.42;1.70;;;;;;;-140.79;100.00;63287.88;4965967;28;20836;-81
2021/03/29 05:08:00;;;;;;;3.35;1.90;;;;;;;-140.79;100.00;63287.88;4965303;28;20046;-80
2021/03/29 05:10:26;;;;;;;2.92;1.50;;;;;;;-140.79;100.00;63287.88;4968291;28;20019;-81
2021/03/29 05:12:51;;;;;;;2.67;1.52;;;;;;;-140.79;100.00;63287.88;4959741;28;20027;-84
2021/03/29 05:15:17;;;;;;;3.33;1.40;;;;;;;-140.79;100.00;63287.88;4966404;28;20019;-81
2021/03/29 05:17:43;;;;;;;2.45;1.52;;;;;;;-140.79;100.00;63287.88;4965473;28;20030;-84
2021/03/29 05:20:09;;;;;;;3.25;1.52;;;;;;;-140.79;100.00;63287.88;4967559;28;20035;-83
2021/03/29 05:22:35;;;;;;;2.65;1.40;;;;;;;-140.79;100.00;63287.88;4957610;28;20033;-81
2021/03/29 05:25:00;;;;;;;2.83;1.80;;;;;;;-140.79;100.00;63287.88;4965161;28;20019;-81
2021/03/29 05:27:26;;;;;;;2.42;1.45;;;;;;;-140.79;100.00;63287.88;4958453;28;20023;-78
2021/03/29 05:29:52;;;;;;;2.45;1.45;;;;;;;-140.79;100.00;63287.88;4972584;28;20027;-76
2021/03/29 05:32:18;;;;;;;2.40;1.48;;;;;;;-140.79;100.00;63287.88;4973974;28;20035;-88
2021/03/29 05:34:46;;;;;;;2.60;1.40;;;;;;;-140.79;100.00;63287.88;4956062;28;20037;-88
2021/03/29 05:37:12;;;;;;;3.15;1.60;;;;;;;-140.79;100.00;63287.88;4954988;28;20064;-83
2021/03/29 05:39:37;;;;;;;2.47;1.60;;;;;;;-140.79;100.00;63287.88;4981332;28;20487;-79
2021/03/29 05:42:03;;;;;;;5.72;2.17;;;;;;;-140.79;100.00;63287.88;4962931;28;20042;-77
2021/03/29 05:44:29;;;;;;;14.48;1.95;;;;;;;-140.79;100.00;63287.88;4961732;28;20486;-82
2021/03/29 05:46:54;;;;;;;2.10;1.27;;;;;;;-140.79;100.00;63287.88;4976303;28;20034;-76
2021/03/29 05:49:20;;;;;;;2.10;1.45;;;;;;;-140.79;100.00;63287.88;4971163;28;20046;-77
2021/03/29 05:51:45;;;;;;;3.65;1.98;;;;;;;-140.79;100.00;63287.88;4975084;28;20037;-86
2021/03/29 05:54:11;;;;;;;2.58;1.50;;;;;;;-140.79;100.00;63287.88;4964176;28;20047;-79
2021/03/29 05:56:38;;;;;;;3.22;1.50;;;;;;;-140.79;100.00;63287.88;4981214;28;20476;-76
2021/03/29 05:59:13;;;;;;;3.08;1.80;;;;;;;-140.79;100.00;63287.88;4951422;28;20396;-79
2021/03/29 06:01:52;;;;;;;2.08;1.38;;;;;;;-140.79;100.00;63287.88;4962046;28;20026;-76
2021/03/29 06:04:44;;;;;;;5.75;2.40;;;;;;;-140.79;100.00;63287.88;4971483;28;20047;-78
2021/03/29 06:07:16;;;;;;;3.35;1.90;;;;;;;-140.79;100.00;63287.88;4972471;28;20039;-78
2021/03/29 06:09:42;;;;;;;2.45;1.40;;;;;;;-140.79;100.00;63287.88;4986152;28;20034;-85
2021/03/29 06:12:09;;;;;;;2.95;1.50;;;;;;;-140.79;100.00;63287.88;4976762;28;20027;-74
2021/03/29 06:14:36;;;;;;;2.38;1.55;;;;;;;-140.79;100.00;63287.88;4982720;28;20027;-75
2021/03/29 06:17:10;;;;;;;3.05;1.50;;;;;;;-140.79;100.00;63287.88;4970218;28;20094;-85
2021/03/29 06:19:39;;;;;;;1.83;1.33;;;;;;;-140.79;100.00;63287.88;4977999;28;20034;-89
2021/03/29 06:22:11;;;;;;;3.45;1.60;;;;;;;-140.79;100.00;63287.88;4978257;28;20024;-84
2021/03/29 06:24:57;;;;;;;2.67;1.30;;;;;;;-140.79;100.00;63287.88;4967746;28;20031;-77
2021/03/29 06:27:27;;;;;;;2.30;1.50;;;;;;;-140.79;100.00;63287.88;4986634;28;20181;-78
2021/03/29 06:30:11;;;;;;;3.40;1.33;;;;;;;-140.79;100.00;63287.88;4968235;28;20027;-79
2021/03/29 06:32:37;;;;;;;3.78;1.63;;;;;;;-140.79;100.00;63287.88;4964614;28;20041;-78
2021/03/29 06:35:21;;;;;;;3.03;1.70;;;;;;;-140.79;100.00;63287.88;4984433;28;20023;-82
2021/03/29 06:37:47;;;;;;;6.90;2.30;;;;;;;-140.79;100.00;63287.88;4952415;28;20035;-79
2021/03/29 06:40:13;;;;;;;3.67;1.95;;;;;;;-140.79;100.00;63287.88;4956601;28;20035;-78
2021/03/29 06:42:39;;;;;;;2.53;1.50;;;;;;;-140.79;100.00;63287.88;4957588;29;20059;-85
2021/03/29 06:45:12;;;;;;;2.08;1.33;;;;;;;-140.79;100.00;63287.88;4948802;29;20532;-76
2021/03/29 06:47:37;;;;;;;4.82;1.48;;;;;;;-140.79;100.00;63287.88;4959907;28;20031;-87
2021/03/29 06:50:03;;;;;;;3.67;1.83;;;;;;;-140.79;100.00;63287.88;4960378;28;20043;-81
2021/03/29 06:52:30;;;;;;;6.85;1.60;;;;;;;-140.79;100.00;63287.88;4956874;28;20066;-80
2021/03/29 06:55:26;;;;;;;2.60;1.80;;;;;;;-140.79;100.00;63287.88;4953719;28;20040;-83
2021/03/29 06:58:01;;;;;;;2.42;1.40;;;;;;;-140.79;100.00;63287.88;4963824;28;20033;-87
2021/03/29 07:00:37;;;;;;;3.00;1.33;;;;;;;-140.79;100.00;63287.88;4966008;28;20027;-70
2021/03/29 07:03:04;;;;;;;3.20;1.27;;;;;;;-140.79;100.00;63287.88;4974165;28;20042;-76
2021/03/29 07:05:30;;;;;;;2.92;1.20;;;;;;;-140.79;100.00;63287.88;4964481;28;20463;-75
2021/03/29 07:07:56;;;;;;;2.40;1.40;;;;;;;-140.79;100.00;63287.88;4969959;28;20034;-69
2021/03/29 07:10:22;;;;;;;3.05;1.38;;;;;;;-140.79;100.00;63287.88;4961205;28;20033;-70
2021/03/29 07:12:47;;;;;;;2.83;1.73;;;;;;;-140.79;100.00;63287.88;4972685;28;20597;-70
2021/03/29 07:15:13;;;;;;;2.25;1.42;;;;;;;-140.79;100.00;63287.88;4977081;28;20488;-71
2021/03/29 07:17:40;;;;;;;2.50;1.45;;;;;;;-140.79;100.00;63287.88;4959238;28;20020;-71
2021/03/29 07:20:13;;;;;;;2.70;1.20;;;;;;;-140.79;100.00;63287.88;4975447;28;20484;-71
2021/03/29 07:22:40;;;;;;;2.70;1.40;;;;;;;-140.79;100.00;63287.88;4963196;28;20047;-72
2021/03/29 07:25:11;;;;;;;2.72;1.48;;;;;;;-140.79;100.00;63287.88;4983020;28;20941;-70
2021/03/29 07:27:41;;;;;;;2.78;1.38;;;;;;;-140.79;100.00;63287.88;4977295;28;20464;-71
2021/03/29 07:30:07;;;;;;;2.55;1.30;;;;;;;-140.79;100.00;63287.88;4979615;28;20031;-71
2021/03/29 07:32:33;;;;;;;2.65;1.25;;;;;;;-140.79;100.00;63287.88;4960262;28;20114;-70
2021/03/29 07:34:59;;;;;;;2.22;1.67;;;;;;;-140.79;100.00;63287.88;4971040;28;20106;-70
2021/03/29 07:37:41;;;;;;;2.65;1.88;;;;;;;-140.79;100.00;63287.88;4950028;28;20523;-71
2021/03/29 07:40:07;;;;;;;3.33;1.63;;;;;;;-140.79;100.00;63287.88;4961990;28;20039;-72
2021/03/29 07:42:33;;;;;;;3.75;1.70;;;;;;;-140.79;100.00;63287.88;4960330;28;20038;-70
2021/03/29 07:45:00;;;;;;;2.50;1.50;;;;;;;-140.79;100.00;63287.88;4920505;28;20046;-70
2021/03/29 07:47:45;;;;;;;2.72;1.13;;;;;;;-140.79;100.00;63287.88;4954979;28;20027;-70
2021/03/29 07:50:19;;;;;;;2.67;1.40;;;;;;;-140.79;100.00;63287.88;4950971;28;20535;-71
2021/03/29 07:52:49;;;;;;;2.53;1.30;;;;;;;-140.79;100.00;63287.88;4955461;28;20027;-71
2021/03/29 07:55:22;;;;;;;1.63;1.15;;;;;;;-140.79;100.00;63287.88;4948400;28;20055;-71
2021/03/29 07:57:51;;;;;;;2.10;1.27;;;;;;;-140.79;100.00;63287.88;4947415;28;20067;-70
2021/03/29 08:00:22;;;;;;;2.35;1.40;;;;;;;-140.79;100.00;63287.88;4949405;28;20048;-70
2021/03/29 08:02:48;;;;;;;2.25;1.50;;;;;;;-140.79;100.00;63287.88;4947221;28;20090;-70
2021/03/29 08:05:15;;;;;;;2.10;1.38;;;;;;;-140.79;100.00;63287.88;4954989;28;20035;-70
2021/03/29 08:07:41;;;;;;;2.60;1.60;;;;;;;-140.79;100.00;63287.88;4957311;28;20508;-71
2021/03/29 08:10:11;;;;;;;1.90;1.50;;;;;;;-140.79;100.00;63287.88;4949833;28;20033;-70
2021/03/29 08:12:37;;;;;;;;;;;;;;;-140.79;100.00;63287.88;4949993;28;20023;-70
2021/03/29 08:15:03;;;;;;;3.00;1.38;;;;;;;-140.79;100.00;63287.88;4952753;28;20296;-71
2021/03/29 08:17:46;;;;;;;2.85;1.33;;;;;;;-140.79;100.00;63287.88;4950003;28;20031;-70
2021/03/29 08:20:14;;;;;;;6.32;1.35;;;;;;;-140.79;100.00;63287.88;4958875;28;20030;-71
2021/03/29 08:22:40;;;;;;;4.75;1.42;;;;;;;-140.79;100.00;63287.88;4944704;28;20057;-71
2021/03/29 08:25:06;;;;;;;4.57;1.67;;;;;;;-140.79;100.00;63287.88;4964196;28;20023;-71
2021/03/29 08:27:32;;;;;;;13.98;2.00;;;;;;;-140.79;100.00;63287.88;4945560;28;20052;-71
2021/03/29 08:30:13;;;;;;;5.10;1.70;;;;;;;-140.79;100.00;63287.88;4946091;28;20019;-71
2021/03/29 08:32:40;;;;;;;7.07;1.73;;;;;;;-140.79;100.00;63287.88;4944750;28;20028;-71
2021/03/29 08:35:18;;;;;;;7.57;1.60;;;;;;;-140.79;100.00;63287.88;4947407;28;20508;-70
2021/03/29 08:37:49;;;;;;;7.20;2.22;;;;;;;-140.79;100.00;63287.88;4947102;28;20459;-70
2021/03/29 08:40:23;;;;;;;12.18;2.28;;;;;;;-140.79;100.00;63287.88;4949048;28;20054;-71
2021/03/29 08:42:50;;;;;;;9.63;1.90;;;;;;;-140.79;100.00;63287.88;4929116;29;20684;-72
2021/03/29 08:45:20;;;;;;;9.65;2.20;;;;;;;-140.79;100.00;63287.88;4947232;28;20492;-71
2021/03/29 08:47:48;;;;;;;6.03;1.92;;;;;;;-140.79;100.00;63287.88;4948758;28;20027;-71
2021/03/29 08:50:18;;;;;;;7.60;2.10;;;;;;;-140.79;100.00;63287.88;4949882;28;20086;-71
2021/03/29 08:52:44;;;;;;;;;;;;;;;-140.79;100.00;63287.88;4948682;28;20031;-71
2021/03/29 08:55:19;;;;;;;14.38;1.98;;;;;;;-140.79;100.00;63287.88;4948944;28;19914;-70
2021/03/29 08:57:49;;;;;;;7.60;2.33;;;;;;;-140.79;100.00;63287.88;4946831;28;20027;-71
2021/03/29 09:00:25;;;;;;;10.38;2.17;;;;;;;-140.79;100.00;63287.88;4947235;28;20054;-71
2021/03/29 09:02:50;;;;;;;7.82;1.90;;;;;;;-140.79;100.00;63287.88;4946325;28;20484;-71
2021/03/29 09:05:17;;;;;;;9.85;2.05;;;;;;;-140.79;100.00;63287.88;4956787;28;20030;-89
2021/03/29 09:07:44;;;;;;;21.73;2.90;;;;;;;-140.79;100.00;63287.88;4945422;28;20036;-89
2021/03/29 09:10:20;;;;;;;17.45;2.83;;;;;;;-140.79;100.00;63287.88;4962265;28;20034;-88
2021/03/29 09:12:51;;;;;;;14.93;2.80;;;;;;;-140.79;100.00;63287.88;4953541;28;20528;-86
2021/03/29 09:15:16;;;;;;;16.55;2.85;;;;;;;-140.79;100.00;63287.88;4972994;28;20662;-83
2021/03/29 09:17:42;;;;;;;19.23;3.08;;;;;;;-140.79;100.00;63287.88;4948641;28;20094;-78
2021/03/29 09:20:18;;;;;;;20.30;3.75;;;;;;;-140.79;100.00;63287.88;4958167;28;20018;-78
2021/03/29 09:22:46;;;;;;;11.65;2.47;;;;;;;-140.79;100.00;63287.88;4953507;28;20042;-78
2021/03/29 09:25:12;;;;;;;18.65;3.17;;;;;;;-140.79;100.00;63287.88;4966567;28;20034;-76
2021/03/29 09:27:41;;;;;;;18.27;2.70;;;;;;;-140.79;100.00;63287.88;4960121;28;20883;-76
2021/03/29 09:30:09;;;;;;;16.80;2.78;;;;;;;-140.79;100.00;63287.88;4956668;28;20046;-76
2021/03/29 09:32:34;;;;;;;19.15;3.10;;;;;;;-140.79;100.00;63287.88;4959261;28;20039;-77
2021/03/29 09:35:00;;;;;;;18.60;3.88;;;;;;;-140.79;100.00;63287.88;4977264;28;20043;-76
2021/03/29 09:37:27;;;;;;;17.05;3.03;;;;;;;-140.79;100.00;63287.88;4971316;28;20031;-77
2021/03/29 09:40:06;;;;;;;20.35;3.28;;;;;;;-140.79;100.00;63287.88;4965073;28;20038;-76
2021/03/29 09:42:42;;;;;;;16.92;3.67;;;;;;;-140.79;100.00;63287.88;4961150;28;20027;-76
2021/03/29 09:45:15;;;;;;;12.45;2.67;;;;;;;-140.79;100.00;63287.88;4957698;28;20496;-79
2021/03/29 09:47:40;;;;;;;14.23;2.63;;;;;;;-140.79;100.00;63287.88;4963190;28;20038;-74
2021/03/29 09:50:09;;;;;;;15.95;4.63;;;;;;;-140.79;100.00;63287.88;4969819;28;20578;-75
2021/03/29 09:52:35;;;;;;;20.50;3.83;;;;;;;-140.79;100.00;63287.88;4953676;28;20027;-76
2021/03/29 09:55:01;;;;;;;11.75;3.60;;;;;;;-140.79;100.00;63287.88;4969366;28;20035;-75
2021/03/29 09:57:27;;;;;;;18.00;2.67;;;;;;;-140.79;100.00;63287.88;4950190;28;20054;-75
2021/03/29 09:59:54;;;;;;;15.98;3.67;;;;;;;-140.79;100.00;63287.88;4952527;28;20023;-74
2021/03/29 10:02:26;;;;;;;18.45;3.47;;;;;;;-140.79;100.00;63287.88;4941714;28;20041;-83
2021/03/29 10:05:05;;;;;;;11.10;3.10;;;;;;;-140.79;100.00;63287.88;4962501;28;20450;-80
2021/03/29 10:07:31;;;;;;;13.43;4.20;;;;;;;-140.79;100.00;63287.88;4982796;28;20039;-87
2021/03/29 10:10:03;;;;;;;14.52;3.85;;;;;;;-140.79;100.00;63287.88;4981553;28;20038;-85
2021/03/29 10:12:30;;;;;;;15.55;5.15;;;;;;;-140.79;100.00;63287.88;4977654;28;20055;-86
2021/03/29 10:15:09;;;;;;;15.63;4.55;;;;;;;-140.79;100.00;63287.88;4967490;28;20036;-85
2021/03/29 10:17:35;;;;;;;12.27;3.45;;;;;;;-140.79;100.00;63287.88;4956471;28;20034;-85
2021/03/29 10:20:18;;;;;;;15.60;3.75;;;;;;;-140.79;100.00;63287.88;4966557;28;20034;-85
2021/03/29 10:22:44;;;;;;;13.05;3.50;;;;;;;-140.79;100.00;63287.88;4956019;28;20463;-85
2021/03/29 10:25:17;;;;;;;13.48;3.95;;;;;;;-140.79;100.00;63287.88;4955226;28;20121;-82
2021/03/29 10:27:49;;;;;;;12.55;3.65;;;;;;;-140.79;100.00;63287.88;4937677;29;20475;-81
2021/03/29 10:30:18;;;;;;;14.23;3.50;;;;;;;-140.79;100.00;63287.88;4963528;28;20035;-77
2021/03/29 10:32:44;;;;;;;15.20;3.65;;;;;;;-140.79;100.00;63287.88;4962458;28;20035;-76
2021/03/29 10:35:10;;;;;;;11.55;3.15;;;;;;;-140.79;100.00;63287.88;4979560;28;20111;-77
2021/03/29 10:37:35;;;;;;;13.85;4.10;;;;;;;-140.79;100.00;63287.88;4947162;28;20074;-81
2021/03/29 10:40:01;;;;;;;16.77;3.15;;;;;;;-140.79;100.00;63287.88;4939231;29;20500;-84
2021/03/29 10:42:31;;;;;;;11.75;3.53;;;;;;;-140.79;100.00;63287.88;4935190;29;20031;-82
2021/03/29 10:44:57;;;;;;;10.48;3.10;;;;;;;-140.79;100.00;63287.88;4955214;28;20023;-84
2021/03/29 10:47:23;;;;;;;13.35;3.55;;;;;;;-140.79;100.00;63287.88;4951462;28;20033;-79
2021/03/29 10:49:48;;;;;;;11.85;4.43;;;;;;;-140.79;100.00;63287.88;4955323;28;20019;-79
2021/03/29 10:52:14;;;;;;;8.88;3.05;;;;;;;-140.79;100.00;63287.88;4963121;28;20050;-76
2021/03/29 10:54:39;;;;;;;9.75;2.67;;;;;;;-140.79;100.00;63287.88;4983992;28;20050;-75
2021/03/29 10:57:05;;;;;;;9.27;2.85;;;;;;;-140.79;100.00;63287.88;4981720;28;20027;-77
2021/03/29 10:59:31;;;;;;;9.73;3.03;;;;;;;-140.79;100.00;63287.88;4966016;28;20054;-76
2021/03/29 11:01:56;;;;;;;9.95;3.15;;;;;;;-140.79;100.00;63287.88;4954999;28;20134;-83
2021/03/29 11:04:22;;;;;;;10.50;2.58;;;;;;;-140.79;100.00;63287.88;4945777;28;20048;-80
2021/03/29 11:06:47;;;;;;;10.57;2.60;;;;;;;-140.79;100.00;63287.88;4965684;28;20038;-75
2021/03/29 11:09:12;;;;;;;9.40;2.63;;;;;;;-140.79;100.00;63287.88;4957669;28;20026;-75
2021/03/29 11:11:38;;;;;;;12.07;3.08;;;;;;;-140.79;100.00;63287.88;4960882;28;20032;-75
2021/03/29 11:14:04;;;;;;;13.20;3.22;;;;;;;-140.79;100.00;63287.88;4953668;28;20041;-78
2021/03/29 11:16:30;;;;;;;9.38;2.47;;;;;;;-140.79;100.00;63287.88;4953902;28;20022;-76